sensor_id;sensor_type;location;lat;lon;timestamp;pressure;altitude;pressure_sealevel;temperature;humidity
60099;BME280;62818;49.394;8.686;2024-02-21T00:01:29;101422.59;;;8.52;100.00
60099;BME280;62818;49.394;8.686;2024-02-21T00:06:30;101420.50;;;8.65;100.00
60099;BME280;62818;49.394;8.686;2024-02-21T00:11:30;101409.78;;;8.47;100.00
60099;BME280;62818;49.394;8.686;2024-02-21T00:16:31;101402.25;;;8.33;100.00
60099;BME280;62818;49.394;8.686;2024-02-21T00:21:31;101402.53;;;8.40;100.00
60099;BME280;62818;49.394;8.686;2024-02-21T00:26:31;101403.38;;;8.59;100.00
60099;BME280;62818;49.394;8.686;2024-02-21T00:31:32;101385.78;;;8.20;100.00
60099;BME280;62818;49.394;8.686;2024-02-21T00:36:32;101375.31;;;8.39;100.00
60099;BME280;62818;49.394;8.686;2024-02-21T00:41:33;101378.78;;;8.49;100.00
60099;BME280;62818;49.394;8.686;2024-02-21T00:46:33;101371.09;;;8.46;100.00
60099;BME280;62818;49.394;8.686;2024-02-21T00:51:34;101364.03;;;8.47;100.00
60099;BME280;62818;49.394;8.686;2024-02-21T00:56:34;101356.22;;;8.26;100.00
60099;BME280;62818;49.394;8.686;2024-02-21T01:01:35;101353.19;;;8.59;100.00
60099;BME280;62818;49.394;8.686;2024-02-21T01:06:35;101336.91;;;8.26;100.00
60099;BME280;62818;49.394;8.686;2024-02-21T01:11:36;101325.59;;;8.14;100.00
60099;BME280;62818;49.394;8.686;2024-02-21T01:16:36;101303.78;;;8.12;100.00
60099;BME280;62818;49.394;8.686;2024-02-21T01:21:37;101304.66;;;8.41;100.00
60099;BME280;62818;49.394;8.686;2024-02-21T01:26:37;101319.50;;;8.23;100.00
60099;BME280;62818;49.394;8.686;2024-02-21T01:31:37;101327.59;;;8.69;100.00
60099;BME280;62818;49.394;8.686;2024-02-21T01:36:38;101326.25;;;8.06;100.00
60099;BME280;62818;49.394;8.686;2024-02-21T01:41:38;101321.91;;;8.26;100.00
60099;BME280;62818;49.394;8.686;2024-02-21T01:46:39;101311.91;;;8.39;100.00
60099;BME280;62818;49.394;8.686;2024-02-21T01:51:40;101300.41;;;8.19;100.00
60099;BME280;62818;49.394;8.686;2024-02-21T01:56:41;101311.91;;;8.39;100.00
60099;BME280;62818;49.394;8.686;2024-02-21T02:01:43;101296.81;;;8.11;100.00
60099;BME280;62818;49.394;8.686;2024-02-21T02:06:44;101294.63;;;8.35;100.00
60099;BME280;62818;49.394;8.686;2024-02-21T02:11:45;101283.66;;;8.49;100.00
60099;BME280;62818;49.394;8.686;2024-02-21T02:16:46;101294.59;;;8.16;100.00
60099;BME280;62818;49.394;8.686;2024-02-21T02:21:54;101290.22;;;8.26;100.00
60099;BME280;62818;49.394;8.686;2024-02-21T02:27:00;101278.25;;;8.32;100.00
60099;BME280;62818;49.394;8.686;2024-02-21T02:32:00;101266.00;;;8.40;100.00
60099;BME280;62818;49.394;8.686;2024-02-21T02:37:00;101254.97;;;7.87;100.00
60099;BME280;62818;49.394;8.686;2024-02-21T02:42:02;101241.47;;;8.00;100.00
60099;BME280;62818;49.394;8.686;2024-02-21T02:47:02;101231.66;;;8.21;100.00
60099;BME280;62818;49.394;8.686;2024-02-21T02:52:03;101223.56;;;8.13;100.00
60099;BME280;62818;49.394;8.686;2024-02-21T02:57:04;101224.00;;;7.99;100.00
60099;BME280;62818;49.394;8.686;2024-02-21T03:02:06;101242.59;;;7.88;100.00
60099;BME280;62818;49.394;8.686;2024-02-21T03:07:06;101230.66;;;8.22;100.00
60099;BME280;62818;49.394;8.686;2024-02-21T03:12:07;101203.69;;;8.18;100.00
60099;BME280;62818;49.394;8.686;2024-02-21T03:17:08;101197.88;;;8.15;100.00
60099;BME280;62818;49.394;8.686;2024-02-21T03:22:08;101194.41;;;7.86;100.00
60099;BME280;62818;49.394;8.686;2024-02-21T03:27:09;101187.88;;;7.90;100.00
60099;BME280;62818;49.394;8.686;2024-02-21T03:32:09;101183.13;;;7.93;100.00
60099;BME280;62818;49.394;8.686;2024-02-21T03:37:10;101169.94;;;7.84;100.00
60099;BME280;62818;49.394;8.686;2024-02-21T03:42:10;101171.63;;;7.75;100.00
60099;BME280;62818;49.394;8.686;2024-02-21T03:47:11;101172.00;;;7.80;100.00
60099;BME280;62818;49.394;8.686;2024-02-21T03:52:12;101163.69;;;7.85;100.00
60099;BME280;62818;49.394;8.686;2024-02-21T03:57:12;101160.09;;;7.86;100.00
60099;BME280;62818;49.394;8.686;2024-02-21T04:02:13;101168.44;;;7.91;100.00
60099;BME280;62818;49.394;8.686;2024-02-21T04:07:14;101185.63;;;8.04;100.00
60099;BME280;62818;49.394;8.686;2024-02-21T04:12:15;101190.25;;;7.93;100.00
60099;BME280;62818;49.394;8.686;2024-02-21T04:17:15;101201.06;;;7.90;100.00
60099;BME280;62818;49.394;8.686;2024-02-21T04:22:16;101200.91;;;8.20;100.00
60099;BME280;62818;49.394;8.686;2024-02-21T04:27:16;101195.50;;;8.02;100.00
60099;BME280;62818;49.394;8.686;2024-02-21T04:32:16;101174.53;;;8.39;100.00
60099;BME280;62818;49.394;8.686;2024-02-21T04:37:17;101162.28;;;8.19;100.00
60099;BME280;62818;49.394;8.686;2024-02-21T04:42:17;101160.34;;;8.02;100.00
60099;BME280;62818;49.394;8.686;2024-02-21T04:47:18;101155.06;;;7.83;100.00
60099;BME280;62818;49.394;8.686;2024-02-21T04:52:19;101142.56;;;7.85;100.00
60099;BME280;62818;49.394;8.686;2024-02-21T04:57:20;101144.53;;;7.73;100.00
60099;BME280;62818;49.394;8.686;2024-02-21T05:02:20;101126.16;;;8.10;100.00
60099;BME280;62818;49.394;8.686;2024-02-21T05:07:24;101113.66;;;8.12;100.00
60099;BME280;62818;49.394;8.686;2024-02-21T05:12:24;101104.09;;;7.92;100.00
60099;BME280;62818;49.394;8.686;2024-02-21T05:17:25;101107.88;;;7.80;100.00
60099;BME280;62818;49.394;8.686;2024-02-21T05:22:25;101097.44;;;7.69;100.00
60099;BME280;62818;49.394;8.686;2024-02-21T05:27:25;101106.75;;;7.73;100.00
60099;BME280;62818;49.394;8.686;2024-02-21T05:32:26;101097.31;;;7.80;100.00
60099;BME280;62818;49.394;8.686;2024-02-21T05:37:27;101118.69;;;7.77;100.00
60099;BME280;62818;49.394;8.686;2024-02-21T05:42:27;101112.84;;;7.64;100.00
60099;BME280;62818;49.394;8.686;2024-02-21T05:47:28;101090.63;;;7.37;100.00
60099;BME280;62818;49.394;8.686;2024-02-21T05:52:29;101089.38;;;7.22;100.00
60099;BME280;62818;49.394;8.686;2024-02-21T05:57:29;101092.41;;;7.18;100.00
60099;BME280;62818;49.394;8.686;2024-02-21T06:02:29;101076.00;;;7.14;100.00
60099;BME280;62818;49.394;8.686;2024-02-21T06:07:30;101087.41;;;7.15;100.00
60099;BME280;62818;49.394;8.686;2024-02-21T06:12:31;101068.16;;;7.33;100.00
60099;BME280;62818;49.394;8.686;2024-02-21T06:17:31;101070.91;;;7.41;100.00
60099;BME280;62818;49.394;8.686;2024-02-21T06:22:32;101057.31;;;7.36;100.00
60099;BME280;62818;49.394;8.686;2024-02-21T06:27:32;101072.84;;;7.59;100.00
60099;BME280;62818;49.394;8.686;2024-02-21T06:32:32;101063.13;;;7.30;100.00
60099;BME280;62818;49.394;8.686;2024-02-21T06:37:33;101074.78;;;7.76;100.00
60099;BME280;62818;49.394;8.686;2024-02-21T06:42:33;101076.06;;;7.62;100.00
60099;BME280;62818;49.394;8.686;2024-02-21T06:47:34;101058.97;;;7.57;100.00
60099;BME280;62818;49.394;8.686;2024-02-21T06:52:35;101055.31;;;7.96;100.00
60099;BME280;62818;49.394;8.686;2024-02-21T06:57:36;101068.72;;;7.46;100.00
60099;BME280;62818;49.394;8.686;2024-02-21T07:02:37;101067.72;;;7.57;100.00
60099;BME280;62818;49.394;8.686;2024-02-21T07:07:37;101065.50;;;7.81;100.00
60099;BME280;62818;49.394;8.686;2024-02-21T07:12:37;101059.63;;;7.78;100.00
60099;BME280;62818;49.394;8.686;2024-02-21T07:17:42;101072.78;;;8.16;100.00
60099;BME280;62818;49.394;8.686;2024-02-21T07:22:42;101059.22;;;7.92;100.00
60099;BME280;62818;49.394;8.686;2024-02-21T07:27:44;101050.47;;;7.91;100.00
60099;BME280;62818;49.394;8.686;2024-02-21T07:32:44;101048.66;;;7.82;100.00
60099;BME280;62818;49.394;8.686;2024-02-21T07:37:45;101048.59;;;8.84;100.00
60099;BME280;62818;49.394;8.686;2024-02-21T07:42:45;101035.31;;;10.33;100.00
60099;BME280;62818;49.394;8.686;2024-02-21T07:47:46;101046.31;;;10.47;100.00
60099;BME280;62818;49.394;8.686;2024-02-21T07:52:46;101044.84;;;10.94;100.00
60099;BME280;62818;49.394;8.686;2024-02-21T07:57:47;101042.97;;;10.78;100.00
60099;BME280;62818;49.394;8.686;2024-02-21T08:02:50;101028.44;;;8.83;100.00
60099;BME280;62818;49.394;8.686;2024-02-21T08:07:51;101035.47;;;8.48;100.00
60099;BME280;62818;49.394;8.686;2024-02-21T08:12:51;101031.53;;;8.52;100.00
60099;BME280;62818;49.394;8.686;2024-02-21T08:17:52;101022.72;;;8.61;100.00
60099;BME280;62818;49.394;8.686;2024-02-21T08:22:52;101029.69;;;8.35;100.00
60099;BME280;62818;49.394;8.686;2024-02-21T08:27:58;101018.53;;;8.41;100.00
60099;BME280;62818;49.394;8.686;2024-02-21T08:32:59;101011.41;;;8.68;100.00
60099;BME280;62818;49.394;8.686;2024-02-21T08:38:00;101006.84;;;8.43;100.00
60099;BME280;62818;49.394;8.686;2024-02-21T08:43:00;100999.09;;;8.32;100.00
60099;BME280;62818;49.394;8.686;2024-02-21T08:48:01;100982.25;;;8.60;100.00
60099;BME280;62818;49.394;8.686;2024-02-21T08:53:02;100983.44;;;8.48;100.00
60099;BME280;62818;49.394;8.686;2024-02-21T08:58:03;100987.06;;;8.47;100.00
60099;BME280;62818;49.394;8.686;2024-02-21T09:03:04;100987.38;;;8.89;100.00
60099;BME280;62818;49.394;8.686;2024-02-21T09:08:05;100979.28;;;9.08;100.00
60099;BME280;62818;49.394;8.686;2024-02-21T09:13:06;100979.66;;;8.78;100.00
60099;BME280;62818;49.394;8.686;2024-02-21T09:18:08;100975.00;;;9.07;100.00
60099;BME280;62818;49.394;8.686;2024-02-21T09:23:09;100958.22;;;9.16;100.00
60099;BME280;62818;49.394;8.686;2024-02-21T09:28:09;100950.66;;;10.24;100.00
60099;BME280;62818;49.394;8.686;2024-02-21T09:33:10;100949.13;;;10.55;100.00
60099;BME280;62818;49.394;8.686;2024-02-21T09:38:11;100951.94;;;9.86;100.00
60099;BME280;62818;49.394;8.686;2024-02-21T09:43:17;100935.28;;;10.35;100.00
60099;BME280;62818;49.394;8.686;2024-02-21T09:53:31;100928.00;;;11.28;100.00
60099;BME280;62818;49.394;8.686;2024-02-21T09:58:34;100925.09;;;10.57;100.00
60099;BME280;62818;49.394;8.686;2024-02-21T10:03:34;100913.88;;;10.95;100.00
60099;BME280;62818;49.394;8.686;2024-02-21T10:08:35;100902.63;;;11.01;100.00
60099;BME280;62818;49.394;8.686;2024-02-21T10:13:35;100906.91;;;10.70;100.00
60099;BME280;62818;49.394;8.686;2024-02-21T10:18:36;100894.09;;;12.25;100.00
60099;BME280;62818;49.394;8.686;2024-02-21T10:23:42;100888.47;;;11.65;100.00
60099;BME280;62818;49.394;8.686;2024-02-21T10:28:43;100879.81;;;12.71;100.00
60099;BME280;62818;49.394;8.686;2024-02-21T10:34:00;100871.94;;;12.32;100.00
60099;BME280;62818;49.394;8.686;2024-02-21T10:39:05;100872.59;;;11.41;100.00
60099;BME280;62818;49.394;8.686;2024-02-21T10:44:05;100867.53;;;11.70;100.00
60099;BME280;62818;49.394;8.686;2024-02-21T10:49:15;100850.50;;;11.40;100.00
60099;BME280;62818;49.394;8.686;2024-02-21T10:54:43;100845.41;;;11.85;100.00
60099;BME280;62818;49.394;8.686;2024-02-21T10:59:51;100827.47;;;11.87;100.00
60099;BME280;62818;49.394;8.686;2024-02-21T11:04:54;100818.53;;;11.26;100.00
60099;BME280;62818;49.394;8.686;2024-02-21T11:09:55;100821.56;;;11.77;100.00
60099;BME280;62818;49.394;8.686;2024-02-21T11:15:05;100808.94;;;11.79;100.00
60099;BME280;62818;49.394;8.686;2024-02-21T11:20:12;100804.69;;;11.54;100.00
60099;BME280;62818;49.394;8.686;2024-02-21T11:25:21;100790.66;;;11.84;100.00
60099;BME280;62818;49.394;8.686;2024-02-21T11:30:27;100780.84;;;11.38;100.00
60099;BME280;62818;49.394;8.686;2024-02-21T11:35:31;100778.66;;;11.50;100.00
60099;BME280;62818;49.394;8.686;2024-02-21T11:40:38;100771.88;;;11.47;100.00
60099;BME280;62818;49.394;8.686;2024-02-21T11:45:40;100746.97;;;11.87;100.00
60099;BME280;62818;49.394;8.686;2024-02-21T11:50:41;100726.56;;;11.49;100.00
60099;BME280;62818;49.394;8.686;2024-02-21T11:55:41;100716.38;;;11.68;100.00
60099;BME280;62818;49.394;8.686;2024-02-21T12:00:42;100710.50;;;11.42;100.00
60099;BME280;62818;49.394;8.686;2024-02-21T12:05:42;100703.81;;;11.54;100.00
60099;BME280;62818;49.394;8.686;2024-02-21T12:10:43;100693.09;;;11.78;100.00
60099;BME280;62818;49.394;8.686;2024-02-21T12:15:48;100678.91;;;11.55;100.00
60099;BME280;62818;49.394;8.686;2024-02-21T12:20:49;100673.31;;;12.04;100.00
60099;BME280;62818;49.394;8.686;2024-02-21T12:25:50;100664.44;;;11.27;100.00
60099;BME280;62818;49.394;8.686;2024-02-21T12:30:54;100645.41;;;11.85;100.00
60099;BME280;62818;49.394;8.686;2024-02-21T12:35:55;100637.31;;;11.78;100.00
60099;BME280;62818;49.394;8.686;2024-02-21T12:40:56;100628.03;;;11.74;100.00
60099;BME280;62818;49.394;8.686;2024-02-21T12:45:57;100617.28;;;12.28;100.00
60099;BME280;62818;49.394;8.686;2024-02-21T12:50:57;100604.50;;;11.71;100.00
60099;BME280;62818;49.394;8.686;2024-02-21T12:55:58;100593.03;;;11.94;100.00
60099;BME280;62818;49.394;8.686;2024-02-21T13:00:58;100581.13;;;11.89;100.00
60099;BME280;62818;49.394;8.686;2024-02-21T13:05:59;100569.84;;;12.39;100.00
60099;BME280;62818;49.394;8.686;2024-02-21T13:10:59;100558.91;;;12.20;100.00
60099;BME280;62818;49.394;8.686;2024-02-21T13:16:00;100544.72;;;12.42;100.00
60099;BME280;62818;49.394;8.686;2024-02-21T13:21:02;100543.72;;;12.14;100.00
60099;BME280;62818;49.394;8.686;2024-02-21T13:26:03;100531.69;;;12.18;100.00
60099;BME280;62818;49.394;8.686;2024-02-21T13:31:06;100527.66;;;11.70;100.00
60099;BME280;62818;49.394;8.686;2024-02-21T13:36:07;100513.19;;;11.72;100.00
60099;BME280;62818;49.394;8.686;2024-02-21T13:41:08;100517.09;;;11.99;100.00
60099;BME280;62818;49.394;8.686;2024-02-21T13:46:08;100496.88;;;12.13;100.00
60099;BME280;62818;49.394;8.686;2024-02-21T13:51:12;100497.47;;;11.85;100.00
60099;BME280;62818;49.394;8.686;2024-02-21T13:56:12;100480.47;;;12.09;100.00
60099;BME280;62818;49.394;8.686;2024-02-21T14:01:13;100455.53;;;11.96;100.00
60099;BME280;62818;49.394;8.686;2024-02-21T14:06:13;100446.88;;;11.64;100.00
60099;BME280;62818;49.394;8.686;2024-02-21T14:11:14;100440.78;;;11.78;100.00
60099;BME280;62818;49.394;8.686;2024-02-21T14:16:14;100415.31;;;11.99;100.00
60099;BME280;62818;49.394;8.686;2024-02-21T14:21:15;100410.34;;;11.66;100.00
60099;BME280;62818;49.394;8.686;2024-02-21T14:26:15;100403.03;;;11.68;100.00
60099;BME280;62818;49.394;8.686;2024-02-21T14:31:16;100393.81;;;11.94;100.00
60099;BME280;62818;49.394;8.686;2024-02-21T14:36:17;100373.47;;;11.71;100.00
60099;BME280;62818;49.394;8.686;2024-02-21T14:41:18;100373.66;;;11.99;100.00
60099;BME280;62818;49.394;8.686;2024-02-21T14:46:18;100356.25;;;11.82;100.00
60099;BME280;62818;49.394;8.686;2024-02-21T14:51:19;100333.06;;;11.61;98.80
60099;BME280;62818;49.394;8.686;2024-02-21T14:56:19;100339.03;;;11.93;100.00
60099;BME280;62818;49.394;8.686;2024-02-21T15:01:20;100333.88;;;12.62;100.00
60099;BME280;62818;49.394;8.686;2024-02-21T15:06:20;100333.44;;;11.58;97.38
60099;BME280;62818;49.394;8.686;2024-02-21T15:11:21;100327.56;;;11.48;97.10
60099;BME280;62818;49.394;8.686;2024-02-21T15:16:22;100321.25;;;11.64;97.12
60099;BME280;62818;49.394;8.686;2024-02-21T15:21:22;100311.81;;;11.61;97.35
60099;BME280;62818;49.394;8.686;2024-02-21T15:26:23;100292.44;;;11.61;96.88
60099;BME280;62818;49.394;8.686;2024-02-21T15:31:24;100276.13;;;11.49;97.95
60099;BME280;62818;49.394;8.686;2024-02-21T15:36:25;100267.72;;;11.31;99.25
60099;BME280;62818;49.394;8.686;2024-02-21T15:41:25;100235.94;;;11.38;100.00
60099;BME280;62818;49.394;8.686;2024-02-21T15:46:26;100232.03;;;11.19;100.00
60099;BME280;62818;49.394;8.686;2024-02-21T15:51:26;100234.59;;;11.27;100.00
60099;BME280;62818;49.394;8.686;2024-02-21T15:56:27;100233.41;;;11.30;100.00
60099;BME280;62818;49.394;8.686;2024-02-21T16:01:37;100222.56;;;11.60;100.00
60099;BME280;62818;49.394;8.686;2024-02-21T16:06:38;100238.75;;;11.65;100.00
60099;BME280;62818;49.394;8.686;2024-02-21T16:11:39;100222.41;;;12.61;100.00
60099;BME280;62818;49.394;8.686;2024-02-21T16:16:40;100206.69;;;13.21;100.00
60099;BME280;62818;49.394;8.686;2024-02-21T16:21:42;100192.13;;;13.58;100.00
60099;BME280;62818;49.394;8.686;2024-02-21T16:26:42;100188.91;;;12.94;100.00
60099;BME280;62818;49.394;8.686;2024-02-21T16:31:44;100187.38;;;12.09;100.00
60099;BME280;62818;49.394;8.686;2024-02-21T16:36:44;100171.22;;;11.53;100.00
60099;BME280;62818;49.394;8.686;2024-02-21T16:41:45;100174.00;;;11.45;100.00
60099;BME280;62818;49.394;8.686;2024-02-21T16:46:45;100153.88;;;11.36;100.00
60099;BME280;62818;49.394;8.686;2024-02-21T16:51:46;100147.03;;;11.12;100.00
60099;BME280;62818;49.394;8.686;2024-02-21T16:56:46;100140.91;;;11.27;100.00
60099;BME280;62818;49.394;8.686;2024-02-21T17:01:47;100144.75;;;11.96;100.00
60099;BME280;62818;49.394;8.686;2024-02-21T17:06:51;100127.56;;;11.20;100.00
60099;BME280;62818;49.394;8.686;2024-02-21T17:11:52;100123.06;;;11.21;100.00
60099;BME280;62818;49.394;8.686;2024-02-21T17:16:53;100117.22;;;11.10;100.00
60099;BME280;62818;49.394;8.686;2024-02-21T17:21:54;100112.09;;;11.09;100.00
60099;BME280;62818;49.394;8.686;2024-02-21T17:26:55;100100.97;;;10.99;100.00
60099;BME280;62818;49.394;8.686;2024-02-21T17:31:55;100085.16;;;11.05;100.00
60099;BME280;62818;49.394;8.686;2024-02-21T17:36:56;100090.69;;;11.10;100.00
60099;BME280;62818;49.394;8.686;2024-02-21T17:41:56;100080.91;;;11.11;100.00
60099;BME280;62818;49.394;8.686;2024-02-21T17:46:57;100077.22;;;10.76;100.00
60099;BME280;62818;49.394;8.686;2024-02-21T17:51:58;100067.38;;;11.06;100.00
60099;BME280;62818;49.394;8.686;2024-02-21T17:56:58;100068.50;;;10.97;100.00
60099;BME280;62818;49.394;8.686;2024-02-21T18:01:59;100064.00;;;11.69;100.00
60099;BME280;62818;49.394;8.686;2024-02-21T18:07:00;100054.81;;;11.29;100.00
60099;BME280;62818;49.394;8.686;2024-02-21T18:12:00;100034.19;;;11.31;100.00
60099;BME280;62818;49.394;8.686;2024-02-21T18:17:04;100029.13;;;10.79;100.00
60099;BME280;62818;49.394;8.686;2024-02-21T18:22:05;100032.72;;;11.43;100.00
60099;BME280;62818;49.394;8.686;2024-02-21T18:27:07;100025.19;;;10.75;100.00
60099;BME280;62818;49.394;8.686;2024-02-21T18:32:07;99988.09;;;10.02;100.00
60099;BME280;62818;49.394;8.686;2024-02-21T18:37:10;99995.53;;;10.36;100.00
60099;BME280;62818;49.394;8.686;2024-02-21T18:42:11;99995.16;;;10.68;100.00
60099;BME280;62818;49.394;8.686;2024-02-21T18:47:11;99986.78;;;10.86;100.00
60099;BME280;62818;49.394;8.686;2024-02-21T18:52:12;99976.81;;;10.88;100.00
60099;BME280;62818;49.394;8.686;2024-02-21T18:57:12;99971.88;;;11.06;100.00
60099;BME280;62818;49.394;8.686;2024-02-21T19:02:15;99961.34;;;11.12;100.00
60099;BME280;62818;49.394;8.686;2024-02-21T19:07:15;99959.72;;;11.11;100.00
60099;BME280;62818;49.394;8.686;2024-02-21T19:12:19;99965.03;;;11.11;99.66
60099;BME280;62818;49.394;8.686;2024-02-21T19:17:19;99963.19;;;11.33;98.24
60099;BME280;62818;49.394;8.686;2024-02-21T19:22:23;99963.56;;;11.30;96.72
60099;BME280;62818;49.394;8.686;2024-02-21T19:27:29;99951.44;;;11.42;96.89
60099;BME280;62818;49.394;8.686;2024-02-21T19:32:29;99955.09;;;11.41;94.41
60099;BME280;62818;49.394;8.686;2024-02-21T19:37:30;99947.06;;;11.35;94.59
60099;BME280;62818;49.394;8.686;2024-02-21T19:42:32;99942.44;;;11.37;94.50
60099;BME280;62818;49.394;8.686;2024-02-21T19:47:32;99926.09;;;11.40;93.90
60099;BME280;62818;49.394;8.686;2024-02-21T19:52:33;99922.44;;;11.41;93.43
60099;BME280;62818;49.394;8.686;2024-02-21T19:57:33;99912.34;;;11.57;94.61
60099;BME280;62818;49.394;8.686;2024-02-21T20:02:34;99904.91;;;11.46;92.71
60099;BME280;62818;49.394;8.686;2024-02-21T20:07:34;99894.50;;;11.45;92.53
60099;BME280;62818;49.394;8.686;2024-02-21T20:12:36;99880.91;;;11.54;91.96
60099;BME280;62818;49.394;8.686;2024-02-21T20:17:43;99862.91;;;11.50;90.29
60099;BME280;62818;49.394;8.686;2024-02-21T20:22:46;99869.88;;;11.57;88.72
60099;BME280;62818;49.394;8.686;2024-02-21T20:27:46;99853.72;;;11.52;88.98
60099;BME280;62818;49.394;8.686;2024-02-21T20:32:47;99840.22;;;11.47;89.83
60099;BME280;62818;49.394;8.686;2024-02-21T20:37:51;99819.66;;;11.56;87.17
60099;BME280;62818;49.394;8.686;2024-02-21T20:42:52;99816.00;;;11.63;85.35
60099;BME280;62818;49.394;8.686;2024-02-21T20:47:52;99820.94;;;11.66;84.38
60099;BME280;62818;49.394;8.686;2024-02-21T20:52:53;99813.69;;;11.81;81.57
60099;BME280;62818;49.394;8.686;2024-02-21T20:57:53;99810.94;;;12.03;82.39
60099;BME280;62818;49.394;8.686;2024-02-21T21:02:54;99808.81;;;11.85;82.37
60099;BME280;62818;49.394;8.686;2024-02-21T21:07:54;99802.44;;;11.79;84.82
60099;BME280;62818;49.394;8.686;2024-02-21T21:12:55;99806.91;;;11.72;86.18
60099;BME280;62818;49.394;8.686;2024-02-21T21:17:55;99811.59;;;11.70;87.40
60099;BME280;62818;49.394;8.686;2024-02-21T21:22:56;99789.03;;;11.60;89.22
60099;BME280;62818;49.394;8.686;2024-02-21T21:27:57;99790.00;;;11.52;91.67
60099;BME280;62818;49.394;8.686;2024-02-21T21:32:57;99789.91;;;11.33;100.00
60099;BME280;62818;49.394;8.686;2024-02-21T21:37:58;99757.81;;;11.21;100.00
60099;BME280;62818;49.394;8.686;2024-02-21T21:43:00;99770.09;;;11.01;100.00
60099;BME280;62818;49.394;8.686;2024-02-21T21:48:02;99749.47;;;10.96;100.00
60099;BME280;62818;49.394;8.686;2024-02-21T21:53:02;99737.94;;;10.83;100.00
60099;BME280;62818;49.394;8.686;2024-02-21T21:58:03;99721.56;;;10.73;100.00
60099;BME280;62818;49.394;8.686;2024-02-21T22:03:03;99703.13;;;10.65;100.00
60099;BME280;62818;49.394;8.686;2024-02-21T22:08:04;99690.84;;;10.57;100.00
60099;BME280;62818;49.394;8.686;2024-02-21T22:13:05;99674.56;;;10.60;100.00
60099;BME280;62818;49.394;8.686;2024-02-21T22:18:05;99668.31;;;10.47;100.00
60099;BME280;62818;49.394;8.686;2024-02-21T22:23:05;99658.59;;;10.54;100.00
60099;BME280;62818;49.394;8.686;2024-02-21T22:28:07;99653.84;;;10.42;100.00
60099;BME280;62818;49.394;8.686;2024-02-21T22:33:07;99646.19;;;10.26;100.00
60099;BME280;62818;49.394;8.686;2024-02-21T22:38:09;99634.72;;;10.19;100.00
60099;BME280;62818;49.394;8.686;2024-02-21T22:43:09;99627.59;;;10.20;100.00
60099;BME280;62818;49.394;8.686;2024-02-21T22:48:10;99626.00;;;10.04;100.00
60099;BME280;62818;49.394;8.686;2024-02-21T22:53:10;99627.56;;;9.99;100.00
60099;BME280;62818;49.394;8.686;2024-02-21T22:58:10;99612.38;;;9.86;100.00
60099;BME280;62818;49.394;8.686;2024-02-21T23:03:11;99604.41;;;9.65;100.00
60099;BME280;62818;49.394;8.686;2024-02-21T23:08:11;99608.16;;;9.35;100.00
60099;BME280;62818;49.394;8.686;2024-02-21T23:13:12;99589.78;;;9.27;100.00
60099;BME280;62818;49.394;8.686;2024-02-21T23:18:13;99594.53;;;9.17;100.00
60099;BME280;62818;49.394;8.686;2024-02-21T23:23:14;99577.16;;;8.93;100.00
60099;BME280;62818;49.394;8.686;2024-02-21T23:28:15;99559.28;;;9.10;100.00
60099;BME280;62818;49.394;8.686;2024-02-21T23:33:16;99557.59;;;8.87;100.00
60099;BME280;62818;49.394;8.686;2024-02-21T23:38:16;99548.19;;;8.85;100.00
60099;BME280;62818;49.394;8.686;2024-02-21T23:43:16;99540.97;;;8.93;100.00
60099;BME280;62818;49.394;8.686;2024-02-21T23:48:17;99535.91;;;8.77;100.00
60099;BME280;62818;49.394;8.686;2024-02-21T23:53:17;99531.63;;;8.76;100.00
60099;BME280;62818;49.394;8.686;2024-02-21T23:58:18;99515.22;;;8.81;100.00
